sensor_id;sensor_type;location;lat;lon;timestamp;pressure;altitude;pressure_sealevel;temperature;humidity
20620;BME280;10469;42.720;23.252;2023-10-31T00:01:59;95103.63;;;11.38;100.00
20620;BME280;10469;42.720;23.252;2023-10-31T00:04:25;95086.72;;;11.25;100.00
20620;BME280;10469;42.720;23.252;2023-10-31T00:06:50;95096.66;;;11.13;100.00
20620;BME280;10469;42.720;23.252;2023-10-31T00:09:16;95087.78;;;11.13;100.00
20620;BME280;10469;42.720;23.252;2023-10-31T00:11:41;95089.19;;;11.15;100.00
20620;BME280;10469;42.720;23.252;2023-10-31T00:14:08;95082.56;;;11.06;100.00
20620;BME280;10469;42.720;23.252;2023-10-31T00:16:33;95092.22;;;10.95;100.00
20620;BME280;10469;42.720;23.252;2023-10-31T00:18:59;95071.81;;;11.06;100.00
20620;BME280;10469;42.720;23.252;2023-10-31T00:21:24;95073.78;;;11.11;100.00
20620;BME280;10469;42.720;23.252;2023-10-31T00:23:50;95076.69;;;11.09;100.00
20620;BME280;10469;42.720;23.252;2023-10-31T00:26:15;95061.44;;;11.10;100.00
20620;BME280;10469;42.720;23.252;2023-10-31T00:28:41;95064.78;;;11.28;100.00
20620;BME280;10469;42.720;23.252;2023-10-31T00:31:07;95058.66;;;10.93;100.00
20620;BME280;10469;42.720;23.252;2023-10-31T00:33:34;95063.16;;;11.04;100.00
20620;BME280;10469;42.720;23.252;2023-10-31T00:36:00;95062.22;;;11.22;100.00
20620;BME280;10469;42.720;23.252;2023-10-31T00:38:26;95065.38;;;11.19;100.00
20620;BME280;10469;42.720;23.252;2023-10-31T00:40:51;95065.38;;;11.19;100.00
20620;BME280;10469;42.720;23.252;2023-10-31T00:43:17;95065.84;;;11.04;100.00
20620;BME280;10469;42.720;23.252;2023-10-31T00:45:42;95052.06;;;11.24;100.00
20620;BME280;10469;42.720;23.252;2023-10-31T00:48:07;95063.78;;;11.58;100.00
20620;BME280;10469;42.720;23.252;2023-10-31T00:50:33;95036.03;;;11.41;100.00
20620;BME280;10469;42.720;23.252;2023-10-31T00:52:58;95039.75;;;11.51;100.00
20620;BME280;10469;42.720;23.252;2023-10-31T00:55:24;95049.22;;;11.83;100.00
20620;BME280;10469;42.720;23.252;2023-10-31T00:57:50;95051.94;;;11.71;100.00
20620;BME280;10469;42.720;23.252;2023-10-31T01:00:16;95042.84;;;11.72;100.00
20620;BME280;10469;42.720;23.252;2023-10-31T01:02:41;95036.69;;;11.60;100.00
20620;BME280;10469;42.720;23.252;2023-10-31T01:05:07;95048.44;;;11.70;100.00
20620;BME280;10469;42.720;23.252;2023-10-31T01:07:34;95037.50;;;11.60;100.00
20620;BME280;10469;42.720;23.252;2023-10-31T01:09:59;95027.91;;;11.64;100.00
20620;BME280;10469;42.720;23.252;2023-10-31T01:12:25;95043.13;;;11.59;100.00
20620;BME280;10469;42.720;23.252;2023-10-31T01:14:53;95026.16;;;11.18;100.00
20620;BME280;10469;42.720;23.252;2023-10-31T01:17:19;95028.00;;;11.29;100.00
20620;BME280;10469;42.720;23.252;2023-10-31T01:19:45;95037.75;;;10.95;100.00
20620;BME280;10469;42.720;23.252;2023-10-31T01:22:10;95037.41;;;10.68;100.00
20620;BME280;10469;42.720;23.252;2023-10-31T01:24:36;95041.16;;;10.67;100.00
20620;BME280;10469;42.720;23.252;2023-10-31T01:27:02;95027.81;;;10.84;100.00
20620;BME280;10469;42.720;23.252;2023-10-31T01:29:27;95024.34;;;10.95;100.00
20620;BME280;10469;42.720;23.252;2023-10-31T01:31:53;95030.06;;;10.98;100.00
20620;BME280;10469;42.720;23.252;2023-10-31T01:34:18;95027.28;;;11.45;100.00
20620;BME280;10469;42.720;23.252;2023-10-31T01:36:44;95027.53;;;11.32;100.00
20620;BME280;10469;42.720;23.252;2023-10-31T01:39:10;95029.44;;;11.20;100.00
20620;BME280;10469;42.720;23.252;2023-10-31T01:41:35;95022.97;;;11.44;100.00
20620;BME280;10469;42.720;23.252;2023-10-31T01:44:01;95028.25;;;11.27;100.00
20620;BME280;10469;42.720;23.252;2023-10-31T01:46:27;95024.31;;;11.18;100.00
20620;BME280;10469;42.720;23.252;2023-10-31T01:48:53;95011.28;;;11.39;100.00
20620;BME280;10469;42.720;23.252;2023-10-31T01:51:18;95022.75;;;11.22;100.00
20620;BME280;10469;42.720;23.252;2023-10-31T01:53:44;95018.34;;;11.16;100.00
20620;BME280;10469;42.720;23.252;2023-10-31T01:56:10;95006.22;;;11.14;100.00
20620;BME280;10469;42.720;23.252;2023-10-31T01:58:36;95004.84;;;11.11;100.00
20620;BME280;10469;42.720;23.252;2023-10-31T02:01:04;95016.28;;;11.07;100.00
20620;BME280;10469;42.720;23.252;2023-10-31T02:03:30;95018.25;;;10.99;100.00
20620;BME280;10469;42.720;23.252;2023-10-31T02:05:56;95004.78;;;10.71;100.00
20620;BME280;10469;42.720;23.252;2023-10-31T02:08:23;95015.59;;;10.41;100.00
20620;BME280;10469;42.720;23.252;2023-10-31T02:10:49;95019.06;;;10.29;100.00
20620;BME280;10469;42.720;23.252;2023-10-31T02:13:16;95021.25;;;10.21;100.00
20620;BME280;10469;42.720;23.252;2023-10-31T02:15:42;95008.25;;;10.24;100.00
20620;BME280;10469;42.720;23.252;2023-10-31T02:18:08;95012.03;;;10.17;100.00
20620;BME280;10469;42.720;23.252;2023-10-31T02:20:34;95007.59;;;10.22;100.00
20620;BME280;10469;42.720;23.252;2023-10-31T02:23:01;95014.53;;;10.30;100.00
20620;BME280;10469;42.720;23.252;2023-10-31T02:25:26;95000.56;;;10.51;100.00
20620;BME280;10469;42.720;23.252;2023-10-31T02:27:52;95010.34;;;10.46;100.00
20620;BME280;10469;42.720;23.252;2023-10-31T02:30:18;94980.06;;;9.92;100.00
20620;BME280;10469;42.720;23.252;2023-10-31T02:32:43;95007.13;;;10.14;100.00
20620;BME280;10469;42.720;23.252;2023-10-31T02:35:09;95014.63;;;10.23;100.00
20620;BME280;10469;42.720;23.252;2023-10-31T02:37:34;95012.28;;;10.15;100.00
20620;BME280;10469;42.720;23.252;2023-10-31T02:40:00;95000.84;;;10.08;100.00
20620;BME280;10469;42.720;23.252;2023-10-31T02:42:26;94993.94;;;9.89;100.00
20620;BME280;10469;42.720;23.252;2023-10-31T02:44:53;94996.78;;;9.75;100.00
20620;BME280;10469;42.720;23.252;2023-10-31T02:47:18;95015.72;;;10.04;100.00
20620;BME280;10469;42.720;23.252;2023-10-31T02:49:44;95011.38;;;9.91;100.00
20620;BME280;10469;42.720;23.252;2023-10-31T02:52:12;95010.81;;;10.01;100.00
20620;BME280;10469;42.720;23.252;2023-10-31T02:54:38;95012.69;;;9.89;100.00
20620;BME280;10469;42.720;23.252;2023-10-31T02:57:03;95014.50;;;9.88;100.00
20620;BME280;10469;42.720;23.252;2023-10-31T02:59:29;95012.31;;;9.55;100.00
20620;BME280;10469;42.720;23.252;2023-10-31T03:01:56;95014.50;;;9.46;100.00
20620;BME280;10469;42.720;23.252;2023-10-31T03:04:22;95018.28;;;9.39;100.00
20620;BME280;10469;42.720;23.252;2023-10-31T03:06:48;95002.56;;;9.12;100.00
20620;BME280;10469;42.720;23.252;2023-10-31T03:09:13;95021.50;;;9.11;100.00
20620;BME280;10469;42.720;23.252;2023-10-31T03:11:39;95021.44;;;9.17;100.00
20620;BME280;10469;42.720;23.252;2023-10-31T03:14:04;94997.09;;;9.07;100.00
20620;BME280;10469;42.720;23.252;2023-10-31T03:16:30;95003.59;;;8.93;100.00
20620;BME280;10469;42.720;23.252;2023-10-31T03:18:56;95019.78;;;8.98;100.00
20620;BME280;10469;42.720;23.252;2023-10-31T03:21:21;95021.97;;;9.08;100.00
20620;BME280;10469;42.720;23.252;2023-10-31T03:23:48;94993.66;;;9.00;100.00
20620;BME280;10469;42.720;23.252;2023-10-31T03:26:15;94989.66;;;8.91;100.00
20620;BME280;10469;42.720;23.252;2023-10-31T03:28:41;94995.88;;;8.85;100.00
20620;BME280;10469;42.720;23.252;2023-10-31T03:31:07;94983.69;;;8.70;100.00
20620;BME280;10469;42.720;23.252;2023-10-31T03:33:33;95002.78;;;8.74;100.00
20620;BME280;10469;42.720;23.252;2023-10-31T03:35:59;95000.13;;;8.74;100.00
20620;BME280;10469;42.720;23.252;2023-10-31T03:38:24;94996.53;;;8.80;100.00
20620;BME280;10469;42.720;23.252;2023-10-31T03:40:50;95008.00;;;8.69;100.00
20620;BME280;10469;42.720;23.252;2023-10-31T03:43:15;94988.38;;;8.57;100.00
20620;BME280;10469;42.720;23.252;2023-10-31T03:45:41;95004.78;;;8.60;100.00
20620;BME280;10469;42.720;23.252;2023-10-31T03:48:06;95002.31;;;8.59;100.00
20620;BME280;10469;42.720;23.252;2023-10-31T03:50:32;94992.00;;;8.62;100.00
20620;BME280;10469;42.720;23.252;2023-10-31T03:52:57;94998.97;;;8.45;100.00
20620;BME280;10469;42.720;23.252;2023-10-31T03:55:23;95002.94;;;8.61;100.00
20620;BME280;10469;42.720;23.252;2023-10-31T03:57:48;95006.72;;;8.71;100.00
20620;BME280;10469;42.720;23.252;2023-10-31T04:00:14;94993.06;;;8.61;100.00
20620;BME280;10469;42.720;23.252;2023-10-31T04:02:40;94994.81;;;8.67;100.00
20620;BME280;10469;42.720;23.252;2023-10-31T04:05:06;94980.25;;;8.45;100.00
20620;BME280;10469;42.720;23.252;2023-10-31T04:07:32;95002.78;;;8.56;100.00
20620;BME280;10469;42.720;23.252;2023-10-31T04:09:57;94973.72;;;8.59;100.00
20620;BME280;10469;42.720;23.252;2023-10-31T04:12:23;94991.13;;;8.68;100.00
20620;BME280;10469;42.720;23.252;2023-10-31T04:14:48;94971.81;;;8.48;100.00
20620;BME280;10469;42.720;23.252;2023-10-31T04:17:14;94974.63;;;8.53;100.00
20620;BME280;10469;42.720;23.252;2023-10-31T04:19:39;94957.69;;;8.41;100.00
20620;BME280;10469;42.720;23.252;2023-10-31T04:22:05;94975.44;;;8.53;100.00
20620;BME280;10469;42.720;23.252;2023-10-31T04:24:31;94988.81;;;8.53;100.00
20620;BME280;10469;42.720;23.252;2023-10-31T04:26:56;94979.69;;;8.43;100.00
20620;BME280;10469;42.720;23.252;2023-10-31T04:29:22;94970.84;;;8.42;100.00
20620;BME280;10469;42.720;23.252;2023-10-31T04:31:48;94976.09;;;8.49;100.00
20620;BME280;10469;42.720;23.252;2023-10-31T04:34:14;94971.09;;;8.34;100.00
20620;BME280;10469;42.720;23.252;2023-10-31T04:36:39;94977.91;;;8.30;100.00
20620;BME280;10469;42.720;23.252;2023-10-31T04:39:05;94980.34;;;8.32;100.00
20620;BME280;10469;42.720;23.252;2023-10-31T04:41:31;94955.84;;;8.16;100.00
20620;BME280;10469;42.720;23.252;2023-10-31T04:43:57;94982.88;;;8.26;100.00
20620;BME280;10469;42.720;23.252;2023-10-31T04:46:25;94994.09;;;8.10;100.00
20620;BME280;10469;42.720;23.252;2023-10-31T04:48:52;95007.97;;;8.25;100.00
20620;BME280;10469;42.720;23.252;2023-10-31T04:51:18;95014.00;;;8.14;100.00
20620;BME280;10469;42.720;23.252;2023-10-31T04:53:44;95004.41;;;8.07;100.00
20620;BME280;10469;42.720;23.252;2023-10-31T04:56:13;95005.69;;;7.97;100.00
20620;BME280;10469;42.720;23.252;2023-10-31T04:58:40;94993.66;;;7.88;100.00
20620;BME280;10469;42.720;23.252;2023-10-31T05:01:13;95010.78;;;8.05;100.00
20620;BME280;10469;42.720;23.252;2023-10-31T05:03:39;95008.53;;;8.02;100.00
20620;BME280;10469;42.720;23.252;2023-10-31T05:06:05;94996.94;;;8.15;100.00
20620;BME280;10469;42.720;23.252;2023-10-31T05:08:31;94997.44;;;8.30;100.00
20620;BME280;10469;42.720;23.252;2023-10-31T05:10:58;94985.19;;;8.66;100.00
20620;BME280;10469;42.720;23.252;2023-10-31T05:13:24;94996.84;;;9.09;100.00
20620;BME280;10469;42.720;23.252;2023-10-31T05:15:50;94980.28;;;9.48;100.00
20620;BME280;10469;42.720;23.252;2023-10-31T05:18:19;94972.06;;;10.03;100.00
20620;BME280;10469;42.720;23.252;2023-10-31T05:20:44;94994.72;;;11.01;100.00
20620;BME280;10469;42.720;23.252;2023-10-31T05:23:10;94975.44;;;11.45;100.00
20620;BME280;10469;42.720;23.252;2023-10-31T05:25:35;94988.28;;;11.83;100.00
20620;BME280;10469;42.720;23.252;2023-10-31T05:28:01;95001.94;;;11.70;100.00
20620;BME280;10469;42.720;23.252;2023-10-31T05:30:27;94984.88;;;12.55;100.00
20620;BME280;10469;42.720;23.252;2023-10-31T05:32:52;95002.47;;;13.18;100.00
20620;BME280;10469;42.720;23.252;2023-10-31T05:35:18;94989.19;;;12.56;100.00
20620;BME280;10469;42.720;23.252;2023-10-31T05:37:45;94998.91;;;14.38;100.00
20620;BME280;10469;42.720;23.252;2023-10-31T05:40:11;94987.50;;;15.00;100.00
20620;BME280;10469;42.720;23.252;2023-10-31T05:42:37;95000.41;;;14.88;100.00
20620;BME280;10469;42.720;23.252;2023-10-31T05:45:03;94990.06;;;14.79;100.00
20620;BME280;10469;42.720;23.252;2023-10-31T05:47:28;94999.91;;;14.59;100.00
20620;BME280;10469;42.720;23.252;2023-10-31T05:49:54;95009.91;;;13.77;100.00
20620;BME280;10469;42.720;23.252;2023-10-31T05:52:19;95023.25;;;12.84;100.00
20620;BME280;10469;42.720;23.252;2023-10-31T05:54:45;95022.13;;;13.19;100.00
20620;BME280;10469;42.720;23.252;2023-10-31T05:57:10;95018.09;;;13.60;100.00
20620;BME280;10469;42.720;23.252;2023-10-31T05:59:36;95032.22;;;13.72;100.00
20620;BME280;10469;42.720;23.252;2023-10-31T06:02:02;95007.09;;;12.84;100.00
20620;BME280;10469;42.720;23.252;2023-10-31T06:04:28;95049.59;;;14.63;100.00
20620;BME280;10469;42.720;23.252;2023-10-31T06:06:53;95039.44;;;16.94;100.00
20620;BME280;10469;42.720;23.252;2023-10-31T06:09:18;95018.59;;;19.08;100.00
20620;BME280;10469;42.720;23.252;2023-10-31T06:11:44;95032.09;;;17.10;100.00
20620;BME280;10469;42.720;23.252;2023-10-31T06:14:10;95035.50;;;18.21;100.00
20620;BME280;10469;42.720;23.252;2023-10-31T06:16:43;95025.25;;;19.20;98.99
20620;BME280;10469;42.720;23.252;2023-10-31T06:19:09;95020.19;;;16.44;100.00
20620;BME280;10469;42.720;23.252;2023-10-31T06:21:35;95008.50;;;18.45;100.00
20620;BME280;10469;42.720;23.252;2023-10-31T06:24:02;95020.59;;;19.50;93.19
20620;BME280;10469;42.720;23.252;2023-10-31T06:26:28;95008.81;;;19.07;96.58
20620;BME280;10469;42.720;23.252;2023-10-31T06:28:53;95018.53;;;19.13;95.11
20620;BME280;10469;42.720;23.252;2023-10-31T06:31:19;95018.59;;;19.08;94.34
20620;BME280;10469;42.720;23.252;2023-10-31T06:33:44;95013.34;;;18.48;98.46
20620;BME280;10469;42.720;23.252;2023-10-31T06:36:10;95014.53;;;18.76;97.96
20620;BME280;10469;42.720;23.252;2023-10-31T06:38:35;95018.69;;;17.59;97.71
20620;BME280;10469;42.720;23.252;2023-10-31T06:41:01;95000.28;;;15.67;100.00
20620;BME280;10469;42.720;23.252;2023-10-31T06:43:26;95009.91;;;16.72;100.00
20620;BME280;10469;42.720;23.252;2023-10-31T06:45:53;95014.38;;;17.58;100.00
20620;BME280;10469;42.720;23.252;2023-10-31T06:48:19;95006.09;;;19.84;99.96
20620;BME280;10469;42.720;23.252;2023-10-31T06:50:44;94978.06;;;19.11;94.54
20620;BME280;10469;42.720;23.252;2023-10-31T06:53:09;95018.72;;;17.44;100.00
20620;BME280;10469;42.720;23.252;2023-10-31T06:55:35;94999.25;;;19.14;99.07
20620;BME280;10469;42.720;23.252;2023-10-31T06:58:00;95016.28;;;19.49;92.10
20620;BME280;10469;42.720;23.252;2023-10-31T07:00:27;95005.81;;;18.40;98.62
20620;BME280;10469;42.720;23.252;2023-10-31T07:02:52;95007.47;;;19.81;94.54
20620;BME280;10469;42.720;23.252;2023-10-31T07:05:18;95008.09;;;19.25;91.60
20620;BME280;10469;42.720;23.252;2023-10-31T07:07:46;95016.59;;;19.18;98.20
20620;BME280;10469;42.720;23.252;2023-10-31T07:10:11;95009.03;;;19.87;97.54
20620;BME280;10469;42.720;23.252;2023-10-31T07:12:37;94996.03;;;20.03;93.94
20620;BME280;10469;42.720;23.252;2023-10-31T07:15:03;94976.56;;;20.52;90.35
20620;BME280;10469;42.720;23.252;2023-10-31T07:17:28;94998.94;;;21.47;86.54
20620;BME280;10469;42.720;23.252;2023-10-31T07:19:54;94984.56;;;24.51;76.72
20620;BME280;10469;42.720;23.252;2023-10-31T07:22:19;94974.19;;;26.02;71.24
20620;BME280;10469;42.720;23.252;2023-10-31T07:24:45;94979.19;;;26.93;64.02
20620;BME280;10469;42.720;23.252;2023-10-31T07:27:10;94968.22;;;27.26;61.61
20620;BME280;10469;42.720;23.252;2023-10-31T07:29:39;94974.38;;;28.54;58.16
20620;BME280;10469;42.720;23.252;2023-10-31T07:32:05;94971.38;;;28.87;55.91
20620;BME280;10469;42.720;23.252;2023-10-31T07:34:31;94972.59;;;24.82;64.31
20620;BME280;10469;42.720;23.252;2023-10-31T07:36:56;94974.38;;;29.38;58.16
20620;BME280;10469;42.720;23.252;2023-10-31T07:39:22;94974.50;;;28.45;57.50
20620;BME280;10469;42.720;23.252;2023-10-31T07:41:48;94968.03;;;28.94;53.97
20620;BME280;10469;42.720;23.252;2023-10-31T07:44:13;94969.16;;;28.65;56.87
20620;BME280;10469;42.720;23.252;2023-10-31T07:46:39;94958.75;;;27.60;58.12
20620;BME280;10469;42.720;23.252;2023-10-31T07:49:04;94948.22;;;27.74;55.77
20620;BME280;10469;42.720;23.252;2023-10-31T07:51:30;94944.69;;;28.91;55.36
20620;BME280;10469;42.720;23.252;2023-10-31T07:53:55;94957.78;;;28.94;53.26
20620;BME280;10469;42.720;23.252;2023-10-31T07:56:23;94956.00;;;26.82;57.48
20620;BME280;10469;42.720;23.252;2023-10-31T07:58:51;94954.09;;;25.34;60.04
20620;BME280;10469;42.720;23.252;2023-10-31T08:01:19;94941.91;;;29.04;52.26
20620;BME280;10469;42.720;23.252;2023-10-31T08:03:48;94942.38;;;29.21;52.51
20620;BME280;10469;42.720;23.252;2023-10-31T08:06:14;94941.22;;;30.33;49.20
20620;BME280;10469;42.720;23.252;2023-10-31T08:08:40;94939.09;;;31.85;45.64
20620;BME280;10469;42.720;23.252;2023-10-31T08:11:09;94943.91;;;29.35;46.62
20620;BME280;10469;42.720;23.252;2023-10-31T08:13:38;94926.22;;;27.41;50.75
20620;BME280;10469;42.720;23.252;2023-10-31T08:16:05;94934.72;;;25.77;60.15
20620;BME280;10469;42.720;23.252;2023-10-31T08:18:31;94940.69;;;24.42;62.74
20620;BME280;10469;42.720;23.252;2023-10-31T08:20:57;94919.91;;;28.26;54.78
20620;BME280;10469;42.720;23.252;2023-10-31T08:23:23;94919.00;;;30.14;49.89
20620;BME280;10469;42.720;23.252;2023-10-31T08:25:48;94903.72;;;28.65;53.36
20620;BME280;10469;42.720;23.252;2023-10-31T08:28:15;94900.81;;;30.13;50.84
20620;BME280;10469;42.720;23.252;2023-10-31T08:30:41;94895.97;;;27.66;52.96
20620;BME280;10469;42.720;23.252;2023-10-31T08:33:07;94912.75;;;25.77;57.49
20620;BME280;10469;42.720;23.252;2023-10-31T08:35:32;94900.19;;;28.12;54.24
20620;BME280;10469;42.720;23.252;2023-10-31T08:37:58;94900.53;;;28.11;52.92
20620;BME280;10469;42.720;23.252;2023-10-31T08:40:23;94897.72;;;29.04;51.19
20620;BME280;10469;42.720;23.252;2023-10-31T08:42:49;94884.22;;;30.67;48.80
20620;BME280;10469;42.720;23.252;2023-10-31T08:45:14;94873.31;;;29.06;49.74
20620;BME280;10469;42.720;23.252;2023-10-31T08:47:40;94865.44;;;27.83;51.36
20620;BME280;10469;42.720;23.252;2023-10-31T08:50:06;94863.81;;;27.21;53.63
20620;BME280;10469;42.720;23.252;2023-10-31T08:52:34;94871.81;;;26.68;55.87
20620;BME280;10469;42.720;23.252;2023-10-31T08:55:00;94866.91;;;27.19;55.24
20620;BME280;10469;42.720;23.252;2023-10-31T08:57:25;94854.53;;;27.50;53.67
20620;BME280;10469;42.720;23.252;2023-10-31T08:59:51;94856.81;;;27.85;53.76
20620;BME280;10469;42.720;23.252;2023-10-31T09:02:16;94853.56;;;29.35;51.18
20620;BME280;10469;42.720;23.252;2023-10-31T09:04:42;94837.97;;;29.11;49.85
20620;BME280;10469;42.720;23.252;2023-10-31T09:07:07;94838.69;;;27.84;52.54
20620;BME280;10469;42.720;23.252;2023-10-31T09:09:33;94838.59;;;29.20;50.64
20620;BME280;10469;42.720;23.252;2023-10-31T09:11:58;94833.00;;;29.33;49.98
20620;BME280;10469;42.720;23.252;2023-10-31T09:14:24;94808.22;;;29.20;48.96
20620;BME280;10469;42.720;23.252;2023-10-31T09:16:49;94821.69;;;29.89;48.10
20620;BME280;10469;42.720;23.252;2023-10-31T09:19:15;94818.28;;;29.60;47.85
20620;BME280;10469;42.720;23.252;2023-10-31T09:21:40;94818.66;;;29.94;47.44
20620;BME280;10469;42.720;23.252;2023-10-31T09:24:07;94789.69;;;29.37;48.08
20620;BME280;10469;42.720;23.252;2023-10-31T09:26:33;94806.69;;;28.47;49.37
20620;BME280;10469;42.720;23.252;2023-10-31T09:28:59;94800.59;;;28.70;48.44
20620;BME280;10469;42.720;23.252;2023-10-31T09:31:24;94790.50;;;28.06;50.96
20620;BME280;10469;42.720;23.252;2023-10-31T09:33:49;94791.22;;;27.38;50.15
20620;BME280;10469;42.720;23.252;2023-10-31T09:36:16;94782.69;;;28.80;49.67
20620;BME280;10469;42.720;23.252;2023-10-31T09:38:42;94763.31;;;27.51;51.58
20620;BME280;10469;42.720;23.252;2023-10-31T09:41:07;94776.44;;;26.27;54.70
20620;BME280;10469;42.720;23.252;2023-10-31T09:43:33;94774.91;;;31.00;47.25
20620;BME280;10469;42.720;23.252;2023-10-31T09:45:58;94763.94;;;29.01;47.85
20620;BME280;10469;42.720;23.252;2023-10-31T09:48:26;94764.88;;;29.40;48.24
20620;BME280;10469;42.720;23.252;2023-10-31T09:50:52;94752.03;;;29.13;47.31
20620;BME280;10469;42.720;23.252;2023-10-31T09:53:19;94753.78;;;27.73;50.18
20620;BME280;10469;42.720;23.252;2023-10-31T09:55:46;94758.50;;;27.48;50.39
20620;BME280;10469;42.720;23.252;2023-10-31T09:58:12;94735.63;;;25.42;52.86
20620;BME280;10469;42.720;23.252;2023-10-31T10:00:38;94738.69;;;28.39;51.24
20620;BME280;10469;42.720;23.252;2023-10-31T10:03:07;94726.50;;;27.44;51.10
20620;BME280;10469;42.720;23.252;2023-10-31T10:05:36;94724.88;;;28.99;48.46
20620;BME280;10469;42.720;23.252;2023-10-31T10:08:03;94700.84;;;29.35;46.97
20620;BME280;10469;42.720;23.252;2023-10-31T10:10:29;94705.25;;;28.88;48.08
20620;BME280;10469;42.720;23.252;2023-10-31T10:12:55;94700.81;;;28.84;46.97
20620;BME280;10469;42.720;23.252;2023-10-31T10:15:21;94702.88;;;27.71;49.23
20620;BME280;10469;42.720;23.252;2023-10-31T10:17:51;94696.13;;;26.67;51.42
20620;BME280;10469;42.720;23.252;2023-10-31T10:20:17;94687.72;;;25.72;52.86
20620;BME280;10469;42.720;23.252;2023-10-31T10:22:43;94695.22;;;26.87;52.41
20620;BME280;10469;42.720;23.252;2023-10-31T10:25:10;94689.59;;;27.20;51.38
20620;BME280;10469;42.720;23.252;2023-10-31T10:27:37;94680.97;;;26.03;55.02
20620;BME280;10469;42.720;23.252;2023-10-31T10:30:05;94693.03;;;26.56;53.70
20620;BME280;10469;42.720;23.252;2023-10-31T10:32:30;94674.91;;;26.67;52.66
20620;BME280;10469;42.720;23.252;2023-10-31T10:34:56;94688.25;;;26.20;52.84
20620;BME280;10469;42.720;23.252;2023-10-31T10:37:23;94678.59;;;26.71;51.72
20620;BME280;10469;42.720;23.252;2023-10-31T10:39:52;94658.16;;;25.57;54.04
20620;BME280;10469;42.720;23.252;2023-10-31T10:42:47;94650.03;;;25.61;54.12
20620;BME280;10469;42.720;23.252;2023-10-31T10:45:14;94641.47;;;26.77;53.53
20620;BME280;10469;42.720;23.252;2023-10-31T10:47:46;94628.63;;;27.74;49.77
20620;BME280;10469;42.720;23.252;2023-10-31T10:50:12;94630.47;;;26.77;50.96
20620;BME280;10469;42.720;23.252;2023-10-31T10:52:41;94630.47;;;26.53;50.57
20620;BME280;10469;42.720;23.252;2023-10-31T11:00:22;94619.94;;;25.31;52.21
20620;BME280;10469;42.720;23.252;2023-10-31T11:02:51;94624.31;;;24.82;51.98
20620;BME280;10469;42.720;23.252;2023-10-31T11:05:17;94622.81;;;24.63;52.84
20620;BME280;10469;42.720;23.252;2023-10-31T11:07:44;94625.34;;;23.92;53.99
20620;BME280;10469;42.720;23.252;2023-10-31T11:10:11;94628.69;;;23.16;57.43
20620;BME280;10469;42.720;23.252;2023-10-31T11:12:37;94603.22;;;22.81;59.08
20620;BME280;10469;42.720;23.252;2023-10-31T11:15:06;94609.19;;;23.00;60.38
20620;BME280;10469;42.720;23.252;2023-10-31T11:17:40;94607.03;;;22.62;62.29
20620;BME280;10469;42.720;23.252;2023-10-31T11:20:08;94598.28;;;21.86;64.15
20620;BME280;10469;42.720;23.252;2023-10-31T11:22:38;94594.03;;;22.59;61.55
20620;BME280;10469;42.720;23.252;2023-10-31T11:25:06;94593.25;;;22.67;58.36
20620;BME280;10469;42.720;23.252;2023-10-31T11:27:34;94569.63;;;22.80;59.95
20620;BME280;10469;42.720;23.252;2023-10-31T11:30:07;94572.50;;;22.09;60.56
20620;BME280;10469;42.720;23.252;2023-10-31T11:32:33;94567.75;;;22.23;61.36
20620;BME280;10469;42.720;23.252;2023-10-31T11:34:59;94577.09;;;22.40;61.18
20620;BME280;10469;42.720;23.252;2023-10-31T11:37:32;94580.03;;;22.03;61.39
20620;BME280;10469;42.720;23.252;2023-10-31T11:40:20;94565.44;;;22.08;60.98
20620;BME280;10469;42.720;23.252;2023-10-31T11:42:50;94564.56;;;22.39;56.92
20620;BME280;10469;42.720;23.252;2023-10-31T11:45:26;94564.94;;;22.72;54.11
20620;BME280;10469;42.720;23.252;2023-10-31T11:47:53;94554.97;;;22.67;54.34
20620;BME280;10469;42.720;23.252;2023-10-31T11:50:18;94557.03;;;22.70;54.62
20620;BME280;10469;42.720;23.252;2023-10-31T11:52:44;94558.94;;;22.35;56.29
20620;BME280;10469;42.720;23.252;2023-10-31T11:55:10;94557.94;;;21.83;57.97
20620;BME280;10469;42.720;23.252;2023-10-31T11:57:37;94545.41;;;22.13;57.68
20620;BME280;10469;42.720;23.252;2023-10-31T12:00:03;94543.50;;;22.22;57.35
20620;BME280;10469;42.720;23.252;2023-10-31T12:02:30;94543.69;;;22.43;55.52
20620;BME280;10469;42.720;23.252;2023-10-31T12:05:12;94530.34;;;22.33;54.41
20620;BME280;10469;42.720;23.252;2023-10-31T12:07:45;94536.41;;;22.21;53.95
20620;BME280;10469;42.720;23.252;2023-10-31T12:10:11;94527.91;;;22.22;54.71
20620;BME280;10469;42.720;23.252;2023-10-31T12:12:37;94527.34;;;22.03;54.45
20620;BME280;10469;42.720;23.252;2023-10-31T12:15:06;94528.91;;;22.70;53.11
20620;BME280;10469;42.720;23.252;2023-10-31T12:17:33;94530.63;;;23.35;52.66
20620;BME280;10469;42.720;23.252;2023-10-31T12:20:03;94521.50;;;24.46;50.18
20620;BME280;10469;42.720;23.252;2023-10-31T12:22:29;94503.09;;;26.00;46.77
20620;BME280;10469;42.720;23.252;2023-10-31T12:25:03;94494.38;;;26.47;45.86
20620;BME280;10469;42.720;23.252;2023-10-31T12:27:45;94486.97;;;27.75;42.90
20620;BME280;10469;42.720;23.252;2023-10-31T12:30:17;94502.91;;;27.82;41.49
20620;BME280;10469;42.720;23.252;2023-10-31T12:32:43;94479.47;;;26.60;42.29
20620;BME280;10469;42.720;23.252;2023-10-31T12:35:20;94478.38;;;24.97;44.81
20620;BME280;10469;42.720;23.252;2023-10-31T12:37:48;94463.38;;;24.61;46.24
20620;BME280;10469;42.720;23.252;2023-10-31T12:40:17;94462.63;;;24.01;47.60
20620;BME280;10469;42.720;23.252;2023-10-31T12:42:44;94469.22;;;24.00;48.15
20620;BME280;10469;42.720;23.252;2023-10-31T12:45:11;94462.34;;;22.74;50.87
20620;BME280;10469;42.720;23.252;2023-10-31T12:47:37;94469.28;;;22.37;52.83
20620;BME280;10469;42.720;23.252;2023-10-31T12:52:47;94466.69;;;22.58;53.39